Bookmark and Share
Track history (hours):
 

Eems Servant

Last reported at 2014-Apr-12 10:08 UTC. Time now 2014-Apr-19 05:12 UTC.
Position N 57°44' W 002°03'.

Length 87 m; draft 4 m.

Type: Cargo ship. MMSI: 246236000.

NotesDate/timePositionNaut miles runAvg speedWind from/ knotsBaromVisibWave heightAir tempDewpointWater temp
2014-Apr-12 10:08N 57°44' W 002°03'4 6.6
2014-Apr-12 09:33N 57°44' W 001°56'6 5.9
2014-Apr-12 08:30N 57°40' W 001°46'7 6.3
2014-Apr-12 07:27N 57°35' W 001°39'6 6.8
2014-Apr-12 06:33N 57°30' W 001°33'10 8.4
2014-Apr-12 05:22N 57°20' W 001°29'129 9.3
2014-Apr-11 15:28N 55°16' W 000°25'9 9.7
2014-Apr-11 14:33N 55°07' W 000°19'11 9.4
2014-Apr-11 13:24N 54°58' W 000°11'8 9.2
2014-Apr-11 12:34N 54°51' W 000°05'9 9.3
2014-Apr-11 11:33N 54°42' E 000°02'9 9.5
2014-Apr-11 10:33N 54°34' E 000°09'10 9.8
2014-Apr-11 09:33N 54°25' E 000°16'1010.2
2014-Apr-11 08:34N 54°16' E 000°24'1010.3
2014-Apr-11 07:33N 54°06' E 000°31'1110.3
2014-Apr-11 06:32N 53°57' E 000°39'47 9.4
2014-Apr-11 01:33N 53°15' E 001°15'1010.4
2014-Apr-11 00:33N 53°06' E 001°24'1111.5
2014-Apr-10 23:33N 52°57' E 001°35'1212.0
2014-Apr-10 22:33N 52°48' E 001°48'1010.4
2014-Apr-10 21:34N 52°39' E 001°56'1110.6
2014-Apr-10 20:34N 52°28' E 001°53'10 9.6
2014-Apr-10 19:33N 52°19' E 001°48'9 8.9
2014-Apr-10 18:33N 52°11' E 001°44'8 8.3
2014-Apr-10 17:33N 52°03' E 001°39'8 8.4
2014-Apr-10 16:33N 51°57' E 001°30'8 7.6
2014-Apr-10 15:34N 51°57' E 001°18'7 7.0
2014-Apr-10 14:33N 52°02' E 001°10'1 0.2
2014-Apr-10 11:12N 52°02' E 001°10'0 0.0
2014-Apr-10 10:06N 52°02' E 001°10'0 0.0
2014-Apr-10 09:24N 52°02' E 001°10'0 0.0
2014-Apr-10 08:33N 52°02' E 001°10'0 0.0
2014-Apr-10 07:33N 52°02' E 001°10'0 0.0
2014-Apr-10 06:33N 52°02' E 001°10'0 0.0
2014-Apr-10 05:33N 52°02' E 001°10'0 0.0
2014-Apr-10 04:30N 52°02' E 001°10'0 0.0
2014-Apr-10 03:18N 52°02' E 001°10'0 0.0
2014-Apr-10 02:24N 52°02' E 001°10'0 0.0
2014-Apr-10 01:33N 52°02' E 001°10'0 0.0
2014-Apr-10 00:21N 52°02' E 001°10'0 0.0
2014-Apr-09 23:33N 52°02' E 001°10'0 0.0
2014-Apr-09 22:33N 52°02' E 001°10'0 0.0
2014-Apr-09 21:30N 52°02' E 001°10'0 0.0
2014-Apr-09 20:21N 52°02' E 001°10'0 0.0
2014-Apr-09 19:30N 52°02' E 001°10'0 0.0
2014-Apr-09 18:30N 52°02' E 001°10'0 0.0
2014-Apr-09 17:30N 52°02' E 001°10'0 0.0
2014-Apr-09 16:24N 52°02' E 001°10'0 0.0
2014-Apr-09 15:30N 52°02' E 001°10'0 0.0
2014-Apr-09 14:33N 52°02' E 001°10'0 0.0
2014-Apr-09 13:33N 52°02' E 001°10'0 0.0
2014-Apr-09 12:24N 52°02' E 001°10'0 0.0
2014-Apr-09 11:30N 52°02' E 001°10'0 0.0
2014-Apr-09 10:33N 52°02' E 001°10'0 0.0
2014-Apr-09 09:30N 52°02' E 001°10'0 0.0
2014-Apr-09 08:27N 52°02' E 001°10'0 0.0
2014-Apr-09 07:33N 52°02' E 001°10'0 0.0
2014-Apr-09 06:30N 52°02' E 001°10'0 0.0
2014-Apr-09 05:30N 52°02' E 001°10'0 0.0
2014-Apr-09 04:30N 52°02' E 001°10'0 0.0
2014-Apr-09 03:33N 52°02' E 001°10'0 0.0
2014-Apr-09 02:33N 52°02' E 001°10'0 0.0
2014-Apr-09 01:30N 52°02' E 001°10'0 0.0
2014-Apr-09 00:24N 52°02' E 001°10'0 0.0
2014-Apr-08 23:33N 52°02' E 001°10'0 0.0
2014-Apr-08 22:27N 52°02' E 001°10'0 0.0
2014-Apr-08 21:30N 52°02' E 001°10'0 0.0
2014-Apr-08 20:21N 52°02' E 001°10'0 0.0
2014-Apr-08 19:30N 52°02' E 001°10'0 0.0
2014-Apr-08 18:33N 52°02' E 001°10'0 0.0
2014-Apr-08 17:33N 52°02' E 001°10'0 0.0
2014-Apr-08 16:34N 52°02' E 001°10'4 4.0
2014-Apr-08 15:34N 51°60' E 001°15'8 7.7
2014-Apr-08 14:33N 51°56' E 001°26'7 6.6
2014-Apr-08 13:34N 51°59' E 001°35'7 7.1
2014-Apr-08 12:34N 52°02' E 001°46'9 8.7
2014-Apr-08 11:33N 52°02' E 001°60'67 7.4
2014-Apr-08 02:33N 52°03' E 003°49'9 9.1
2014-Apr-08 01:32N 51°60' E 004°03'1111.7
2014-Apr-08 00:33N 51°54' E 004°19'6 6.5
2014-Apr-07 23:33N 51°50' E 004°27'7 7.0
2014-Apr-07 22:34N 51°48' E 004°38'0 0.2
2014-Apr-07 21:34N 51°48' E 004°38'0 0.0
2014-Apr-07 20:33N 51°48' E 004°38'0 0.0
2014-Apr-07 19:34N 51°48' E 004°38'0 0.0
2014-Apr-07 17:33N 51°48' E 004°38'0 0.0
2014-Apr-07 16:34N 51°48' E 004°38'0 0.0
2014-Apr-07 15:34N 51°48' E 004°38'0 0.0
2014-Apr-07 14:34N 51°48' E 004°38'0 0.0
2014-Apr-07 13:34N 51°48' E 004°38'4 4.2
2014-Apr-07 12:34N 51°50' E 004°32'8 7.5
2014-Apr-07 11:27N 51°53' E 004°20'6 6.7
2014-Apr-07 10:30N 51°56' E 004°11'7 7.0
2014-Apr-07 09:34N 51°59' E 004°02'7 6.9
2014-Apr-07 08:32N 52°02' E 003°51'6 5.7
2014-Apr-07 07:33N 52°06' E 003°46'2 0.4
2014-Apr-07 03:24N 52°08' E 003°44'0 0.0
2014-Apr-07 02:30N 52°08' E 003°44'0 0.0
2014-Apr-06 23:24N 52°08' E 003°44'0 0.0
2014-Apr-06 19:30N 52°08' E 003°44'0 0.0
2014-Apr-06 09:27N 52°08' E 003°44'6 6.5
2014-Apr-06 08:33N 52°14' E 003°43'9 8.6
2014-Apr-06 07:33N 52°21' E 003°37'8 8.0
2014-Apr-06 06:33N 52°29' E 003°35'188 8.9
2014-Apr-05 09:30N 55°36' E 004°16'19 8.9
2014-Apr-05 07:25N 55°54' E 004°22'11 8.7
2014-Apr-05 06:06N 56°06' E 004°25'131 7.3
2014-Apr-04 12:17N 58°00' E 006°21'6 8.2
2014-Apr-04 11:33N 58°05' E 006°26'12 1.2
2014-Apr-04 01:33N 58°16' E 006°19'10 9.6
2014-Apr-04 00:33N 58°20' E 006°02'9 8.7
2014-Apr-03 23:32N 58°24' E 005°46'8 7.8
2014-Apr-03 22:33N 58°28' E 005°35'12 8.0
2014-Apr-03 21:07N 58°39' E 005°26'5 7.9
2014-Apr-03 20:31N 58°44' E 005°24'7 7.5
2014-Apr-03 19:33N 58°51' E 005°22'8 7.9
2014-Apr-03 18:33N 58°58' E 005°19'8 7.5
2014-Apr-03 17:33N 59°06' E 005°21'10 9.7
2014-Apr-03 16:33N 59°12' E 005°36'1010.5
2014-Apr-03 15:33N 59°19' E 005°51'1310.1
2014-Apr-03 14:14N 59°27' E 006°12'3 0.2
2014-Apr-02 19:22N 59°30' E 006°15'7 9.0
2014-Apr-02 18:33N 59°24' E 006°05'1010.1
2014-Apr-02 17:33N 59°18' E 005°50'1010.4
2014-Apr-02 16:33N 59°11' E 005°35'9 8.7
2014-Apr-02 15:33N 59°05' E 005°23'9 8.9
2014-Apr-02 14:33N 58°56' E 005°20'39 9.3
2014-Apr-02 10:19N 58°17' E 005°30'  

Dump ship's entire track history

sailing weather and tide predictions

Eems Servant — PBTI — position and weather